Negaunee, MI

11:57 AM EST on December 28, 2014 (GMT -0500)
Negaunee, Michigan | Change Station
CLOSE
Current Station
Personal Weather Station
Location: Negaunee, MI
Elevation: 1305 ft
Nearby Weather Stations

Elev 1305 ft 46.50 °N, 87.61 °W | Updated 8 minutes ago

Overcast
Overcast
22.1 °F
Feels Like 16 °F
N
4.3
Wind Variable Wind from West

Today
High -- | Low -- °F
--% Chance of Precip.
Yesterday
High -- | Low -- °F
Precip. -- in
8:33 AM 5:10 PM
Waxing Crescent, 49% visible
Pressure 30.02 in
Visibility 10.0 miles
Clouds Few 6000 ft
Windchill 16 °F
Dew Point 15 °F
Humidity 73%
Rainfall 0.00 in
Snow Depth Not available.
UV 1 out of 12
Pollen .10 out of 12
Air Quality Not available.
Flu Activity Not available.
METAR KSAW 281645Z 28008KT 10SM FEW060 M07/M10 A3002

More Conditions Fewer Conditions

Pressure 30.02 in
Visibility 10.0 miles
Clouds Few 6000 ft
Windchill 16 °F
Dew Point 15 °F
Humidity 73%
Rainfall 0.00 in
Snow Depth Not available.
UV 1 out of 12
Pollen .10 out of 12
Air Quality Not available.
Flu Activity Not available.
METAR KSAW 281645Z 28008KT 10SM FEW060 M07/M10 A3002

More Conditions Fewer Conditions

10-Day Weather Forecast

Almanac

Astronomy

Dec. 28, 2014 Rise Set
Actual Time
Civil Twilight
Nautical Twilight
Astronomical Twilight
Moon
Length of Visible Light
Length of Day
Tomorrow will be .
, % of the Moon is Illuminated

Today's Extremes

State Highs State Lows

Community

WunderPhotos

Upload Photos

1,781,344 photos uploaded!

WunderBlogs® & News

Nearby

Air Quality

  Air Quality AQ Index Pollutant
Not available.

Snow Depth

Station Depth Elevation

Earthquake Activity

City Distance Mag. Time & Date
Minimum magnitude displayed is 2.5.

Coastal Water Temperatures

Place Temperature

Nearby Weather Stations